Quick Links (Output Below):   Max & Min Temps   /   Climate Reports   /   Zone Forecasts
River Forecasts   /   Forestry Forecasts   /   Aviation Forecasts   /   Radars   /   Features

Terminal Aerodrome Forecast (Harrison)

Pick a Site:
Arkadelphia | El Dorado | Fayetteville | Fort Smith | Harrison | Highfill | Hot Springs | Jonesboro
Little Rock | Monticello | Mountain Home | Pine Bluff | Texarkana
 Forecast 

KHRO 021727Z 0218/0318 12009KT P6SM OVC025
     FM022100 14009KT P6SM OVC015
     FM030100 15008KT 4SM BR OVC007
     FM030700 15009KT 4SM BR OVC004
     FM031400 17008KT P6SM OVC009=


 Latest METARs (Observations) 
How to Decode METARs
19Z KHRO 021853Z AUTO 11009KT 10SM OVC024 01/M04 A3036 RMK AO2 SLP292
         T00111044
         
18Z KHRO 021753Z AUTO 12008KT 10SM OVC027 00/M05 A3040 RMK AO2 SLP308
         T00001050 10000 21039 58013
         
17Z KHRO 021653Z AUTO 11010KT 10SM OVC027 M01/M05 A3043 RMK AO2 SLP316
         T10061050
         
16Z KHRO 021553Z AUTO 12010KT 10SM OVC030 M01/M06 A3044 RMK AO2 SLP321
         T10111056
         
15Z KHRO 021453Z AUTO 12009KT 10SM OVC033 M02/M05 A3044 RMK AO2 SLP322
         T10221050 58005
         
14Z KHRO 021353Z AUTO 09008KT 8SM OVC032 M03/M05 A3045 RMK AO2 SLP325
         T10281050
         
13Z KHRO 021253Z AUTO 09006KT 7SM OVC035 M03/M05 A3045 RMK AO2 SLP324
         T10331050
         
12Z KHRO 021153Z AUTO 06003KT 7SM SCT008 M04/M05 A3046 RMK AO2 SLP327
         T10391050 11011 21039 53008
         
11Z KHRO 021053Z AUTO 04004KT 8SM CLR M03/M04 A3043 RMK AO2 SLP318
         T10331044
         
10Z KHRO 020953Z AUTO 36003KT 9SM FEW055 M03/M04 A3044 RMK AO2 SLP320
         T10281039
         
***** Today's Observations (Above) *****


Back to Main Page
http://www.srh.noaa.gov/lzk/qfcst.php

USA.gov is the U.S. government's official web portal to all federal, state and local government web resources and services.